createdAt,value
2018-12-07T00:02:15.290Z,13.17
2018-12-07T00:04:45.700Z,12.27
2018-12-07T00:07:15.472Z,13.20
2018-12-07T00:09:45.338Z,12.43
2018-12-07T00:12:15.244Z,13.67
2018-12-07T00:14:45.836Z,13.37
2018-12-07T00:17:15.623Z,13.63
2018-12-07T00:19:48.215Z,13.07
2018-12-07T00:22:18.306Z,13.08
2018-12-07T00:24:48.320Z,13.60
2018-12-07T00:27:18.206Z,14.07
2018-12-07T00:29:57.463Z,13.98
2018-12-07T00:32:27.294Z,13.20
2018-12-07T00:34:58.746Z,14.55
2018-12-07T00:37:28.762Z,13.27
2018-12-07T00:39:58.495Z,13.77
2018-12-07T00:42:28.475Z,13.37
2018-12-07T00:44:58.292Z,13.87
2018-12-07T00:47:28.232Z,12.67
2018-12-07T00:49:58.254Z,14.17
2018-12-07T00:52:28.080Z,13.17
2018-12-07T00:54:58.123Z,11.20
2018-12-07T00:57:28.063Z,12.60
2018-12-07T00:59:58.430Z,11.95
2018-12-07T01:02:28.386Z,11.40
2018-12-07T01:04:58.303Z,11.20
2018-12-07T01:07:28.433Z,11.03
2018-12-07T01:09:58.113Z,10.67
2018-12-07T01:12:28.071Z,10.53
2018-12-07T01:14:58.011Z,10.28
2018-12-07T01:17:33.859Z,9.93
2018-12-07T01:20:03.542Z,11.37
2018-12-07T01:22:33.345Z,9.97
2018-12-07T01:25:03.449Z,9.50
2018-12-07T01:27:33.159Z,9.50
2018-12-07T01:30:03.151Z,9.23
2018-12-07T01:32:33.020Z,9.33
2018-12-07T01:35:02.966Z,9.13
2018-12-07T01:37:33.154Z,8.47
2018-12-07T01:40:03.672Z,7.15
2018-12-07T01:42:34.835Z,7.87
2018-12-07T01:45:04.808Z,7.63
2018-12-07T01:47:38.842Z,7.47
2018-12-07T01:50:08.853Z,6.95
2018-12-07T01:52:38.555Z,6.73
2018-12-07T01:55:08.594Z,6.90
2018-12-07T01:57:38.328Z,6.20
2018-12-07T02:00:09.039Z,6.43
2018-12-07T02:02:39.111Z,6.78
2018-12-07T02:05:09.735Z,6.47
2018-12-07T02:07:39.429Z,7.30
2018-12-07T02:10:10.582Z,6.80
2018-12-07T02:12:40.279Z,7.30
2018-12-07T02:15:10.343Z,7.97
2018-12-07T02:17:40.472Z,7.27
2018-12-07T02:20:10.152Z,7.07
2018-12-07T02:22:40.285Z,7.50
2018-12-07T02:25:10.309Z,7.10
2018-12-07T02:27:45.446Z,7.00
2018-12-07T02:30:23.920Z,7.90
2018-12-07T02:32:53.687Z,6.93
2018-12-07T02:35:23.378Z,8.37
2018-12-07T02:37:53.075Z,7.27
2018-12-07T02:40:28.236Z,8.05
2018-12-07T02:42:58.051Z,8.50
2018-12-07T02:45:28.169Z,8.20
2018-12-07T02:47:58.050Z,7.87
2018-12-07T02:50:28.213Z,7.22
2018-12-07T02:52:58.334Z,8.10
2018-12-07T02:55:28.383Z,7.27
2018-12-07T02:57:58.539Z,7.95
2018-12-07T03:00:29.472Z,7.67
2018-12-07T03:02:59.227Z,7.50
2018-12-07T03:05:29.265Z,7.77
2018-12-07T03:07:59.050Z,7.23
2018-12-07T03:10:29.105Z,7.50
2018-12-07T03:12:59.074Z,8.73
2018-12-07T03:15:29.145Z,7.87
2018-12-07T03:18:00.659Z,7.83
2018-12-07T03:20:30.525Z,8.80
2018-12-07T03:23:00.202Z,9.07
2018-12-07T03:25:30.296Z,8.40
2018-12-07T03:28:00.330Z,8.30
2018-12-07T03:30:30.319Z,7.60
2018-12-07T03:33:00.543Z,7.57
2018-12-07T03:35:30.262Z,8.30
2018-12-07T03:38:00.054Z,7.13
2018-12-07T03:40:30.092Z,8.23
2018-12-07T03:43:00.206Z,7.72
2018-12-07T03:45:30.322Z,8.55
2018-12-07T03:48:00.285Z,7.37
2018-12-07T03:50:30.503Z,7.50
2018-12-07T03:53:00.392Z,7.90
2018-12-07T03:55:30.110Z,6.77
2018-12-07T03:58:00.340Z,7.42
2018-12-07T04:00:30.333Z,6.03
2018-12-07T04:03:00.430Z,7.50
2018-12-07T04:05:30.161Z,6.47
2018-12-07T04:08:00.219Z,6.97
2018-12-07T04:10:30.331Z,7.63
2018-12-07T04:13:00.318Z,6.97
2018-12-07T04:15:30.809Z,6.80
2018-12-07T04:18:00.514Z,7.13
2018-12-07T04:20:30.226Z,7.27
2018-12-07T04:23:00.120Z,7.30
2018-12-07T04:25:33.688Z,7.20
2018-12-07T04:28:03.555Z,7.67
2018-12-07T04:30:33.442Z,8.07
2018-12-07T04:33:03.378Z,7.67
2018-12-07T04:35:33.410Z,7.67
2018-12-07T04:38:03.394Z,7.43
2018-12-07T04:40:33.462Z,7.83
2018-12-07T04:43:03.269Z,8.20
2018-12-07T04:45:33.394Z,7.20
2018-12-07T04:48:03.313Z,8.17
2018-12-07T04:50:33.364Z,7.50
2018-12-07T04:53:03.560Z,7.58
2018-12-07T04:55:33.467Z,7.27
2018-12-07T04:58:03.330Z,7.07
2018-12-07T05:00:33.136Z,7.63
2018-12-07T05:03:03.026Z,7.07
2018-12-07T05:05:33.149Z,7.20
2018-12-07T05:08:03.094Z,7.60
2018-12-07T05:10:33.109Z,7.53
2018-12-07T05:13:04.456Z,7.42
2018-12-07T05:15:34.139Z,7.40
2018-12-07T05:18:04.293Z,7.10
2018-12-07T05:20:34.072Z,7.53
2018-12-07T05:23:04.305Z,7.67
2018-12-07T05:25:34.219Z,7.93
2018-12-07T05:28:09.036Z,7.80
2018-12-07T05:30:39.313Z,8.30
2018-12-07T05:33:09.845Z,7.90
2018-12-07T05:35:39.917Z,8.00
2018-12-07T05:38:09.671Z,8.50
2018-12-07T05:40:39.488Z,9.30
2018-12-07T05:43:09.502Z,8.23
2018-12-07T05:45:39.269Z,8.57
2018-12-07T05:48:09.515Z,8.50
2018-12-07T05:50:39.207Z,8.80
2018-12-07T05:53:09.100Z,8.47
2018-12-07T05:55:39.147Z,8.60
2018-12-07T05:58:09.502Z,8.88
2018-12-07T06:00:39.408Z,8.27
2018-12-07T06:03:09.465Z,8.43
2018-12-07T06:05:40.575Z,8.08
2018-12-07T06:08:10.330Z,7.70
2018-12-07T06:10:40.699Z,8.03
2018-12-07T06:13:10.536Z,7.60
2018-12-07T06:15:40.419Z,6.77
2018-12-07T06:18:10.592Z,8.73
2018-12-07T06:20:40.460Z,8.13
2018-12-07T06:23:11.594Z,7.75
2018-12-07T06:25:41.582Z,8.23
2018-12-07T06:28:11.443Z,8.27
2018-12-07T06:30:53.940Z,8.33
2018-12-07T06:33:24.045Z,8.03
2018-12-07T06:35:54.174Z,8.77
2018-12-07T06:38:24.300Z,8.78
2018-12-07T06:40:54.705Z,8.60
2018-12-07T06:43:24.543Z,8.23
2018-12-07T06:45:54.400Z,8.20
2018-12-07T06:48:24.294Z,7.97
2018-12-07T06:50:54.100Z,8.33
2018-12-07T06:53:24.310Z,8.30
2018-12-07T06:55:54.389Z,8.00
2018-12-07T06:58:24.809Z,8.47
2018-12-07T07:00:54.644Z,8.13
2018-12-07T07:03:24.534Z,7.53
2018-12-07T07:05:55.516Z,8.30
2018-12-07T07:08:25.216Z,8.43
2018-12-07T07:10:55.183Z,8.97
2018-12-07T07:13:25.252Z,7.95
2018-12-07T07:15:55.128Z,8.20
2018-12-07T07:18:25.577Z,9.13
2018-12-07T07:20:56.738Z,8.43
2018-12-07T07:23:26.739Z,9.50
2018-12-07T07:25:56.679Z,9.10
2018-12-07T07:28:26.434Z,14.53
2018-12-07T07:30:56.529Z,39.97
2018-12-07T07:33:26.404Z,80.00
2018-12-07T07:35:56.843Z,81.60
2018-12-07T07:38:27.711Z,160.30
2018-12-07T07:40:57.610Z,164.10
2018-12-07T07:43:27.568Z,324.17
2018-12-07T07:45:57.440Z,133.77
2018-12-07T07:48:27.239Z,273.60
2018-12-07T07:50:57.698Z,813.23
2018-12-07T07:53:27.684Z,511.83
2018-12-07T07:55:57.482Z,123.33
2018-12-07T07:58:27.432Z,101.60
2018-12-07T08:00:57.322Z,73.30
2018-12-07T08:03:28.003Z,55.67
2018-12-07T08:05:58.272Z,37.17
2018-12-07T08:08:28.100Z,32.85
2018-12-07T08:10:58.671Z,36.90
2018-12-07T08:13:28.734Z,36.17
2018-12-07T08:15:58.505Z,17.97
2018-12-07T08:18:28.526Z,14.13
2018-12-07T08:20:58.343Z,21.93
2018-12-07T08:23:28.247Z,8.40
2018-12-07T08:25:58.503Z,16.32
2018-12-07T08:28:28.817Z,10.80
2018-12-07T08:30:58.824Z,11.40
2018-12-07T08:33:28.864Z,11.97
2018-12-07T08:35:58.729Z,10.30
2018-12-07T08:38:28.566Z,13.60
2018-12-07T08:40:58.628Z,48.50
2018-12-07T08:43:28.657Z,8.53
2018-12-07T08:45:58.387Z,10.00
2018-12-07T08:48:28.379Z,16.03
2018-12-07T08:50:58.227Z,20.43
2018-12-07T08:53:28.272Z,8.93
2018-12-07T08:55:58.335Z,15.20
2018-12-07T08:58:28.402Z,14.27
2018-12-07T09:00:59.583Z,8.00
2018-12-07T09:03:29.283Z,6.87
2018-12-07T09:06:03.316Z,7.47
2018-12-07T09:08:33.139Z,7.83
2018-12-07T09:11:03.218Z,7.70
2018-12-07T09:13:33.097Z,6.97
2018-12-07T09:16:03.393Z,7.70
2018-12-07T09:18:33.498Z,6.30
2018-12-07T09:21:03.516Z,6.47
2018-12-07T09:23:33.361Z,6.20
2018-12-07T09:26:03.428Z,5.57
2018-12-07T09:28:33.664Z,5.60
2018-12-07T09:31:03.688Z,6.07
2018-12-07T09:33:33.407Z,6.00
2018-12-07T09:36:03.544Z,5.10
2018-12-07T09:38:33.343Z,6.27
2018-12-07T09:41:03.424Z,5.67
2018-12-07T09:43:33.439Z,6.57
2018-12-07T09:46:03.142Z,7.50
2018-12-07T09:48:33.276Z,7.10
2018-12-07T09:51:03.220Z,7.13
2018-12-07T09:53:34.440Z,7.43
2018-12-07T09:56:04.715Z,6.80
2018-12-07T09:58:34.927Z,6.90
2018-12-07T10:01:04.761Z,7.60
2018-12-07T10:03:34.584Z,6.43
2018-12-07T10:06:04.377Z,6.30
2018-12-07T10:08:40.044Z,6.70
2018-12-07T10:11:10.084Z,7.57
2018-12-07T10:13:40.573Z,7.08
2018-12-07T10:16:10.338Z,7.17
2018-12-07T10:18:40.299Z,7.67
2018-12-07T10:21:10.444Z,6.33
2018-12-07T10:23:40.348Z,8.70
2018-12-07T10:26:11.823Z,7.00
2018-12-07T10:28:42.100Z,6.53
2018-12-07T10:31:12.405Z,6.50
2018-12-07T10:33:42.206Z,10.00
2018-12-07T10:36:12.303Z,6.20
2018-12-07T10:38:42.095Z,6.93
2018-12-07T10:41:12.161Z,6.92
2018-12-07T10:43:43.784Z,5.50
2018-12-07T10:46:13.556Z,6.53
2018-12-07T10:48:43.390Z,6.37
2018-12-07T10:51:13.638Z,5.70
2018-12-07T10:53:43.748Z,6.27
2018-12-07T10:56:13.808Z,5.57
2018-12-07T10:58:43.557Z,5.30
2018-12-07T11:01:18.266Z,5.43
2018-12-07T11:03:52.920Z,5.97
2018-12-07T11:06:28.121Z,6.00
2018-12-07T11:09:03.257Z,6.27
2018-12-07T11:11:38.229Z,6.17
2018-12-07T11:14:12.848Z,5.70
2018-12-07T11:16:48.062Z,6.43
2018-12-07T11:19:23.021Z,6.20
2018-12-07T11:21:59.119Z,6.35
2018-12-07T11:24:33.924Z,6.77
2018-12-07T11:27:14.140Z,6.28
2018-12-07T11:29:49.238Z,6.22
2018-12-07T11:32:30.608Z,5.70
2018-12-07T11:35:04.904Z,6.40
2018-12-07T11:37:35.232Z,5.72
2018-12-07T11:40:06.739Z,5.47
2018-12-07T11:42:36.671Z,5.50
2018-12-07T11:45:07.273Z,5.70
2018-12-07T11:47:37.155Z,5.93
2018-12-07T11:50:08.266Z,6.03
2018-12-07T11:52:38.113Z,5.57
2018-12-07T11:55:08.345Z,4.80
2018-12-07T11:57:38.391Z,5.00
2018-12-07T12:00:10.069Z,4.80
2018-12-07T12:02:40.297Z,4.92
2018-12-07T12:05:10.215Z,4.10
2018-12-07T12:07:40.211Z,4.30
2018-12-07T12:10:10.342Z,3.95
2018-12-07T12:12:40.422Z,4.40
2018-12-07T12:15:10.151Z,4.67
2018-12-07T12:17:40.108Z,5.03
2018-12-07T12:20:10.371Z,5.10
2018-12-07T12:22:40.252Z,5.50
2018-12-07T12:25:10.077Z,5.20
2018-12-07T12:27:40.051Z,5.10
2018-12-07T12:30:10.322Z,5.03
2018-12-07T12:32:40.419Z,5.23
2018-12-07T12:35:10.308Z,6.00
2018-12-07T12:37:40.089Z,5.40
2018-12-07T12:40:10.143Z,5.20
2018-12-07T12:42:40.259Z,5.90
2018-12-07T12:45:11.316Z,5.60
2018-12-07T12:47:41.437Z,5.70
2018-12-07T12:50:16.210Z,5.67
2018-12-07T12:52:46.338Z,5.30
2018-12-07T12:55:16.615Z,5.00
2018-12-07T12:57:46.524Z,4.20
2018-12-07T13:00:16.316Z,5.13
2018-12-07T13:02:46.451Z,4.67
2018-12-07T13:05:16.588Z,4.80
2018-12-07T13:07:46.278Z,4.67
2018-12-07T13:10:16.121Z,4.87
2018-12-07T13:12:46.148Z,5.30
2018-12-07T13:15:16.444Z,4.83
2018-12-07T13:17:46.655Z,5.40
2018-12-07T13:20:16.637Z,6.03
2018-12-07T13:22:46.580Z,5.80
2018-12-07T13:25:16.373Z,6.03
2018-12-07T13:27:46.584Z,6.97
2018-12-07T13:30:18.662Z,6.70
2018-12-07T13:32:48.995Z,8.33
2018-12-07T13:35:19.329Z,7.63
2018-12-07T13:37:49.429Z,9.83
2018-12-07T13:40:19.279Z,7.27
2018-12-07T13:42:49.566Z,6.80
2018-12-07T13:45:19.767Z,6.57
2018-12-07T13:47:50.319Z,7.00
2018-12-07T13:50:25.289Z,6.63
2018-12-07T13:52:55.352Z,7.13
2018-12-07T13:55:25.545Z,7.33
2018-12-07T13:57:55.886Z,7.47
2018-12-07T14:00:26.635Z,8.43
2018-12-07T14:02:56.827Z,7.40
2018-12-07T14:05:32.160Z,7.40
2018-12-07T14:08:00.031Z,7.37
2018-12-07T14:10:30.705Z,6.83
2018-12-07T14:13:00.949Z,7.20
2018-12-07T14:15:31.556Z,7.35
2018-12-07T14:18:02.018Z,7.80
2018-12-07T14:20:32.487Z,7.55
2018-12-07T14:23:02.702Z,7.80
2018-12-07T14:25:33.037Z,7.25
2018-12-07T14:28:03.287Z,7.10
2018-12-07T14:30:33.383Z,7.37
2018-12-07T14:33:03.697Z,7.30
2018-12-07T14:35:33.960Z,7.00
2018-12-07T14:38:04.105Z,7.58
2018-12-07T14:40:34.628Z,7.87
2018-12-07T14:43:05.513Z,8.53
2018-12-07T14:45:35.765Z,8.37
2018-12-07T14:48:06.271Z,8.80
2018-12-07T14:50:36.662Z,8.40
2018-12-07T14:53:06.740Z,8.20
2018-12-07T14:55:37.944Z,8.10
2018-12-07T14:58:08.202Z,7.90
2018-12-07T15:00:38.452Z,10.37
2018-12-07T15:03:08.555Z,11.87
2018-12-07T15:05:38.846Z,8.57
2018-12-07T15:08:09.539Z,8.50
2018-12-07T15:10:39.714Z,9.13
2018-12-07T15:13:10.327Z,9.43
2018-12-07T15:15:40.476Z,12.33
2018-12-07T15:18:10.820Z,11.60
2018-12-07T15:20:48.704Z,10.83
2018-12-07T15:23:19.199Z,11.43
2018-12-07T15:25:49.500Z,12.37
2018-12-07T15:28:19.622Z,11.87
2018-12-07T15:30:54.712Z,27.10
2018-12-07T15:33:25.324Z,13.95
2018-12-07T15:35:55.985Z,14.73
2018-12-07T15:38:26.742Z,14.83
2018-12-07T15:40:57.266Z,11.38
2018-12-07T15:43:27.699Z,33.10
2018-12-07T15:45:57.925Z,27.80
2018-12-07T15:48:28.601Z,67.87
2018-12-07T15:50:58.680Z,11.53
2018-12-07T15:53:29.486Z,62.43
2018-12-07T15:55:59.766Z,10.70
2018-12-07T15:58:30.222Z,10.03
2018-12-07T16:01:00.670Z,12.50
2018-12-07T16:03:32.368Z,9.68
2018-12-07T16:06:02.740Z,12.17
2018-12-07T16:08:33.406Z,8.90
2018-12-07T16:11:03.667Z,9.17
2018-12-07T16:13:33.832Z,8.53
2018-12-07T16:16:04.493Z,8.10
2018-12-07T16:18:35.169Z,8.20
2018-12-07T16:21:05.678Z,8.47
2018-12-07T16:23:35.877Z,9.30
2018-12-07T16:26:08.196Z,8.93
2018-12-07T16:28:38.492Z,7.60
2018-12-07T16:31:09.284Z,7.73
2018-12-07T16:33:39.332Z,9.27
2018-12-07T16:36:10.103Z,9.63
2018-12-07T16:38:40.427Z,8.83
2018-12-07T16:41:10.406Z,9.20
2018-12-07T16:43:41.696Z,13.43
2018-12-07T16:46:12.203Z,10.05
2018-12-07T16:48:43.086Z,10.08
2018-12-07T16:51:13.906Z,10.87
2018-12-07T16:53:49.209Z,10.23
2018-12-07T16:56:20.720Z,11.73
2018-12-07T16:58:50.873Z,12.47
2018-12-07T17:01:21.373Z,10.33
2018-12-07T17:03:52.983Z,10.43
2018-12-07T17:06:24.201Z,10.17
2018-12-07T17:08:55.700Z,10.50
2018-12-07T17:11:26.736Z,11.23
2018-12-07T17:13:56.981Z,11.00
2018-12-07T17:16:28.782Z,10.58
2018-12-07T17:18:59.599Z,10.78
2018-12-07T17:21:31.495Z,9.75
2018-12-07T17:24:02.452Z,10.50
2018-12-07T17:26:33.287Z,9.60
2018-12-07T17:29:03.599Z,10.20
2018-12-07T17:31:34.331Z,9.77
2018-12-07T17:36:45.928Z,10.10
2018-12-07T17:39:16.335Z,10.23
2018-12-07T17:41:46.818Z,9.50
2018-12-07T17:44:17.072Z,9.25
2018-12-07T17:46:48.098Z,9.93
2018-12-07T17:49:18.469Z,10.37
2018-12-07T17:51:49.797Z,10.30
2018-12-07T17:54:19.691Z,10.77
2018-12-07T17:56:50.329Z,10.48
2018-12-07T17:59:20.529Z,9.83
2018-12-07T18:01:50.337Z,10.10
2018-12-07T18:04:20.447Z,30.97
2018-12-07T18:06:50.547Z,13.50
2018-12-07T18:09:21.529Z,9.35
2018-12-07T18:11:51.669Z,10.07
2018-12-07T18:14:22.270Z,10.35
2018-12-07T18:16:52.618Z,10.47
2018-12-07T18:19:22.591Z,10.43
2018-12-07T18:21:52.574Z,9.53
2018-12-07T18:24:22.785Z,9.00
2018-12-07T18:26:53.962Z,9.05
2018-12-07T18:29:24.355Z,9.37
2018-12-07T18:31:54.619Z,9.23
2018-12-07T18:34:25.243Z,8.50
2018-12-07T18:36:56.263Z,8.47
2018-12-07T18:39:26.777Z,8.30
2018-12-07T18:41:57.526Z,8.27
2018-12-07T18:44:28.042Z,7.57
2018-12-07T18:46:59.559Z,7.95
2018-12-07T18:49:29.643Z,7.70
2018-12-07T18:52:00.555Z,7.83
2018-12-07T18:54:30.936Z,6.90
2018-12-07T18:57:00.845Z,7.00
2018-12-07T18:59:30.844Z,6.73
2018-12-07T19:02:01.340Z,7.23
2018-12-07T19:04:31.730Z,7.40
2018-12-07T19:07:02.503Z,7.87
2018-12-07T19:09:32.735Z,7.33
2018-12-07T19:12:02.783Z,8.33
2018-12-07T19:14:33.273Z,8.15
2018-12-07T19:17:03.601Z,8.33
2018-12-07T19:19:34.096Z,8.60
2018-12-07T19:22:04.558Z,8.20
2018-12-07T19:24:34.738Z,7.43
2018-12-07T19:27:05.706Z,8.10
2018-12-07T19:29:37.384Z,8.77
2018-12-07T19:32:07.642Z,8.03
2018-12-07T19:34:38.273Z,8.25
2018-12-07T19:37:08.790Z,8.13
2018-12-07T19:39:39.366Z,8.35
2018-12-07T19:42:10.537Z,9.00
2018-12-07T19:44:40.642Z,9.10
2018-12-07T19:47:11.720Z,8.13
2018-12-07T19:49:43.025Z,7.83
2018-12-07T19:52:13.982Z,8.23
2018-12-07T19:54:44.884Z,8.15
2018-12-07T19:57:15.338Z,8.45
2018-12-07T19:59:45.785Z,8.67
2018-12-07T20:02:17.598Z,9.18
2018-12-07T20:04:47.883Z,10.10
2018-12-07T20:07:20.880Z,9.10
2018-12-07T20:09:51.581Z,8.87
2018-12-07T20:12:22.030Z,8.00
2018-12-07T20:14:52.660Z,9.23
2018-12-07T20:17:23.140Z,9.35
2018-12-07T20:19:53.645Z,11.40
2018-12-07T20:22:24.474Z,9.85
2018-12-07T20:24:55.220Z,8.10
2018-12-07T20:27:25.812Z,7.03
2018-12-07T20:29:56.330Z,7.97
2018-12-07T20:32:26.646Z,9.83
2018-12-07T20:34:56.784Z,23.00
2018-12-07T20:37:27.454Z,9.55
2018-12-07T20:39:57.511Z,12.83
2018-12-07T20:42:28.693Z,15.57
2018-12-07T20:44:58.963Z,16.67
2018-12-07T20:47:29.886Z,11.67
2018-12-07T20:50:00.720Z,21.27
2018-12-07T20:52:31.011Z,19.87
2018-12-07T20:55:01.371Z,41.28
2018-12-07T20:57:31.740Z,47.73
2018-12-07T21:00:02.434Z,23.67
2018-12-07T21:02:33.736Z,23.33
2018-12-07T21:05:53.927Z,17.90
2018-12-07T21:08:43.771Z,10.17
2018-12-07T21:11:24.759Z,9.03
2018-12-07T21:14:03.760Z,9.60
2018-12-07T21:17:38.639Z,11.43
2018-12-07T21:20:18.721Z,11.20
2018-12-07T21:22:49.394Z,10.72
2018-12-07T21:25:20.527Z,9.83
2018-12-07T21:27:50.650Z,9.17
2018-12-07T21:30:58.272Z,8.20
2018-12-07T21:34:37.199Z,6.70
2018-12-07T21:37:07.526Z,6.87
2018-12-07T21:39:46.041Z,9.20
2018-12-07T21:42:18.193Z,8.00
2018-12-07T21:44:48.407Z,8.33
2018-12-07T21:47:39.609Z,7.50
2018-12-07T21:50:14.379Z,7.13
2018-12-07T21:52:44.941Z,8.33
2018-12-07T21:55:16.678Z,7.92
2018-12-07T21:57:47.016Z,7.67
2018-12-07T22:00:17.447Z,9.47
2018-12-07T22:02:47.781Z,8.80
2018-12-07T22:05:20.285Z,9.10
2018-12-07T22:07:50.631Z,9.77
2018-12-07T22:10:20.619Z,8.80
2018-12-07T22:12:50.691Z,9.10
2018-12-07T22:15:20.592Z,8.43
2018-12-07T22:17:50.794Z,9.13
2018-12-07T22:20:26.813Z,9.40
2018-12-07T22:22:56.640Z,9.33
2018-12-07T22:25:26.865Z,9.83
2018-12-07T22:27:56.962Z,10.23
2018-12-07T22:30:28.527Z,9.95
2018-12-07T22:32:58.630Z,9.77
2018-12-07T22:35:29.660Z,10.53
2018-12-07T22:38:00.123Z,10.60
2018-12-07T22:40:30.430Z,10.60
2018-12-07T22:43:00.975Z,10.23
2018-12-07T22:45:31.339Z,10.18
2018-12-07T22:48:01.682Z,11.00
2018-12-07T22:50:31.832Z,10.63
2018-12-07T22:53:01.677Z,10.07
2018-12-07T22:55:31.520Z,8.93
2018-12-07T22:58:01.435Z,10.37
2018-12-07T23:00:31.467Z,10.00
2018-12-07T23:03:01.460Z,8.67
2018-12-07T23:05:31.488Z,8.70
2018-12-07T23:08:01.295Z,8.37
2018-12-07T23:10:31.284Z,8.13
2018-12-07T23:13:01.226Z,8.40
2018-12-07T23:15:31.292Z,8.60
2018-12-07T23:18:01.454Z,8.90
2018-12-07T23:20:31.458Z,8.10
2018-12-07T23:23:01.548Z,9.28
2018-12-07T23:25:31.654Z,9.07
2018-12-07T23:28:01.457Z,9.87
2018-12-07T23:30:31.330Z,9.87
2018-12-07T23:33:01.456Z,10.80
2018-12-07T23:35:31.701Z,10.17
2018-12-07T23:38:01.577Z,12.77
2018-12-07T23:40:31.495Z,11.47
2018-12-07T23:43:02.469Z,12.00
2018-12-07T23:45:32.298Z,11.87
2018-12-07T23:48:02.536Z,12.37
2018-12-07T23:50:32.435Z,12.93
2018-12-07T23:53:02.362Z,12.43
2018-12-07T23:55:32.219Z,12.80
2018-12-07T23:58:02.521Z,12.83
